Time;durP1;ratioP1;P1;durP2;ratioP2;P2;SDS_P1;SDS_P2;PMS_P1;PMS_P2;Temp;Humidity;BMP_temperature;BMP_pressure;BME280_temperature;BME280_humidity;BME280_pressure;Samples;Min_cycle;Max_cycle;Signal;HPM_P1;HPM_P2
2022/10/19 00:00:30;;;;;;;36.15;12.43;;;11.10;99.90;;;;;;5033760;28;20179;-78
2022/10/19 00:02:55;;;;;;;17.65;11.30;;;11.20;99.90;;;;;;5033769;28;20181;-78
2022/10/19 00:05:21;;;;;;;14.43;11.82;;;11.10;99.90;;;;;;5034270;28;20182;-78
2022/10/19 00:07:46;;;;;;;15.35;11.30;;;11.10;99.90;;;;;;5033261;28;20256;-78
2022/10/19 00:10:12;;;;;;;26.88;12.98;;;11.10;99.90;;;;;;5033221;28;20214;-78
2022/10/19 00:12:37;;;;;;;28.95;12.50;;;11.00;99.90;;;;;;5033145;28;20262;-78
2022/10/19 00:15:04;;;;;;;101.80;16.08;;;11.00;99.90;;;;;;5034029;28;20177;-78
2022/10/19 00:17:30;;;;;;;104.32;17.67;;;10.90;99.90;;;;;;5032974;28;20201;-78
2022/10/19 00:19:56;;;;;;;192.02;17.55;;;11.00;99.90;;;;;;5034572;28;20182;-78
2022/10/19 00:22:21;;;;;;;285.92;19.20;;;11.00;99.90;;;;;;5034088;28;20179;-78
2022/10/19 00:24:47;;;;;;;204.75;16.25;;;11.10;99.90;;;;;;5033804;28;20186;-78
2022/10/19 00:27:12;;;;;;;205.32;19.15;;;11.00;99.90;;;;;;5033669;28;20206;-78
2022/10/19 00:29:38;;;;;;;174.02;17.60;;;10.80;99.90;;;;;;5035095;28;20614;-78
2022/10/19 00:32:03;;;;;;;127.95;17.60;;;10.80;99.90;;;;;;5032896;28;20174;-78
2022/10/19 00:34:29;;;;;;;83.97;16.08;;;10.80;99.90;;;;;;5033797;28;20270;-78
2022/10/19 00:36:55;;;;;;;86.68;17.52;;;10.90;99.90;;;;;;5032998;28;20195;-78
2022/10/19 00:39:20;;;;;;;298.83;18.15;;;11.00;99.90;;;;;;5032727;28;20179;-78
2022/10/19 00:41:47;;;;;;;194.40;14.90;;;11.00;99.90;;;;;;5032702;28;20179;-78
2022/10/19 00:44:12;;;;;;;115.90;13.68;;;10.90;99.90;;;;;;5032869;28;20179;-78
2022/10/19 00:46:51;;;;;;;114.05;14.07;;;10.90;99.90;;;;;;5033386;28;20195;-78
2022/10/19 00:49:27;;;;;;;134.07;15.65;;;10.90;99.90;;;;;;5032588;28;20226;-78
2022/10/19 00:52:00;;;;;;;125.25;14.60;;;10.60;99.90;;;;;;5033123;28;20253;-78
2022/10/19 00:54:26;;;;;;;241.93;16.67;;;10.50;99.90;;;;;;5032434;28;20210;-78
2022/10/19 00:56:55;;;;;;;209.13;15.38;;;10.50;99.90;;;;;;5033780;28;20226;-78
2022/10/19 00:59:24;;;;;;;175.55;16.98;;;10.50;99.90;;;;;;5033531;28;20190;-78
2022/10/19 01:02:30;;;;;;;137.88;18.17;;;10.40;99.90;;;;;;5033037;28;20258;-78
2022/10/19 01:04:55;;;;;;;134.35;16.88;;;10.50;99.90;;;;;;5034365;28;20167;-78
2022/10/19 01:07:22;;;;;;;141.88;17.38;;;10.50;99.90;;;;;;5033506;28;20253;-78
2022/10/19 01:09:48;;;;;;;111.03;19.17;;;10.40;99.90;;;;;;5032225;28;20289;-78
2022/10/19 01:12:30;;;;;;;76.55;17.40;;;10.50;99.90;;;;;;5033665;28;20270;-78
2022/10/19 01:15:08;;;;;;;78.20;13.30;;;10.50;99.90;;;;;;5033131;28;20215;-78
2022/10/19 01:17:53;;;;;;;27.50;15.48;;;10.50;99.90;;;;;;5032450;28;20286;-77
2022/10/19 01:20:37;;;;;;;25.45;15.75;;;10.40;99.90;;;;;;5032091;28;20209;-77
2022/10/19 01:23:40;;;;;;;25.48;14.18;;;10.40;99.90;;;;;;5032137;28;20194;-77
2022/10/19 01:26:43;;;;;;;23.23;14.60;;;10.40;99.90;;;;;;5032380;28;20194;-78
2022/10/19 01:29:53;;;;;;;25.67;16.27;;;10.50;99.90;;;;;;5033246;28;20206;-78
2022/10/19 01:32:55;;;;;;;23.38;14.70;;;10.60;99.90;;;;;;5030830;28;20642;-78
2022/10/19 01:35:35;;;;;;;19.33;13.55;;;10.60;99.90;;;;;;5028169;28;20193;-78
2022/10/19 01:38:13;;;;;;;19.98;14.80;;;10.70;99.90;;;;;;5032937;28;20177;-78
2022/10/19 01:40:57;;;;;;;29.45;16.85;;;10.70;99.90;;;;;;5032283;28;20182;-78
2022/10/19 01:44:07;;;;;;;24.10;16.02;;;10.80;99.90;;;;;;5033103;28;20257;-78
2022/10/19 01:46:38;;;;;;;33.70;20.02;;;10.80;99.90;;;;;;5030574;28;20206;-78
2022/10/19 01:49:45;;;;;;;36.20;19.30;;;10.80;99.90;;;;;;5031915;28;20206;-78
2022/10/19 01:52:14;;;;;;;26.40;17.90;;;10.70;99.90;;;;;;5032277;28;20644;-78
2022/10/19 01:54:49;;;;;;;33.25;20.17;;;10.70;99.90;;;;;;5033385;28;20179;-78
2022/10/19 01:57:19;;;;;;;37.17;22.48;;;10.70;99.90;;;;;;5033097;28;20555;-78
2022/10/19 01:59:47;;;;;;;41.33;23.33;;;10.70;99.90;;;;;;5033052;28;20197;-78
2022/10/19 02:02:14;;;;;;;41.85;23.60;;;10.70;99.90;;;;;;5033762;28;20182;-78
2022/10/19 02:04:40;;;;;;;36.88;22.48;;;10.60;99.90;;;;;;5033013;28;20549;-78
2022/10/19 02:07:07;;;;;;;33.25;21.95;;;10.60;99.90;;;;;;5031681;28;20202;-78
2022/10/19 02:09:32;;;;;;;39.90;23.33;;;10.50;99.90;;;;;;5031619;28;20203;-78
2022/10/19 02:12:02;;;;;;;38.05;23.15;;;10.60;99.90;;;;;;5031785;28;20190;-78
2022/10/19 02:14:32;;;;;;;36.83;24.75;;;10.60;99.90;;;;;;5035150;28;20233;-78
2022/10/19 02:17:06;;;;;;;39.90;23.85;;;10.70;99.90;;;;;;5036875;28;20202;-78
2022/10/19 02:19:32;;;;;;;41.10;24.35;;;10.80;99.90;;;;;;5036429;28;20267;-78
2022/10/19 02:21:58;;;;;;;40.90;25.60;;;10.80;99.90;;;;;;5035934;28;20202;-78
2022/10/19 02:24:24;;;;;;;42.25;26.60;;;10.70;99.90;;;;;;5035980;28;20561;-78
2022/10/19 02:27:26;;;;;;;45.50;27.60;;;10.70;99.90;;;;;;5035139;28;20202;-78
2022/10/19 02:29:52;;;;;;;49.22;27.08;;;10.70;99.90;;;;;;5035155;28;20202;-78
2022/10/19 02:32:18;;;;;;;48.05;28.83;;;10.60;99.90;;;;;;5035362;28;20179;-78
2022/10/19 02:34:44;;;;;;;43.70;27.58;;;10.60;99.90;;;;;;5035371;28;20210;-78
2022/10/19 02:37:10;;;;;;;48.58;27.83;;;10.50;99.90;;;;;;5035331;28;20284;-78
2022/10/19 02:39:37;;;;;;;47.80;27.42;;;10.50;99.90;;;;;;5035014;28;20194;-78
2022/10/19 02:42:08;;;;;;;48.45;27.13;;;10.40;99.90;;;;;;5034886;28;20257;-78
2022/10/19 02:45:04;;;;;;;46.75;27.38;;;10.40;99.90;;;;;;5034794;28;20170;-78
2022/10/19 02:47:43;;;;;;;48.42;28.80;;;10.30;99.90;;;;;;5036302;28;20218;-78
2022/10/19 02:50:10;;;;;;;45.58;27.42;;;10.30;99.90;;;;;;5035330;28;20195;-78
2022/10/19 02:52:36;;;;;;;43.97;26.80;;;10.30;99.90;;;;;;5034983;28;20182;-78
2022/10/19 02:55:02;;;;;;;44.58;26.60;;;10.30;99.90;;;;;;5036154;28;20171;-78
2022/10/19 02:57:28;;;;;;;45.08;27.30;;;10.30;99.90;;;;;;5034287;28;20206;-78
2022/10/19 02:59:53;;;;;;;43.53;27.35;;;10.20;99.90;;;;;;5034653;28;20175;-78
2022/10/19 03:02:19;;;;;;;47.42;28.65;;;10.30;99.90;;;;;;5035387;28;20178;-78
2022/10/19 03:04:45;;;;;;;49.25;28.08;;;10.40;99.90;;;;;;5034421;28;20202;-78
2022/10/19 03:07:15;;;;;;;45.08;27.52;;;10.40;99.90;;;;;;5035840;28;20217;-78
2022/10/19 03:09:41;;;;;;;53.97;28.00;;;10.50;99.90;;;;;;5034998;28;20212;-78
2022/10/19 03:12:07;;;;;;;45.60;25.85;;;10.60;99.90;;;;;;5034388;28;20171;-78
2022/10/19 03:14:33;;;;;;;43.25;26.48;;;10.60;99.90;;;;;;5034305;28;20185;-78
2022/10/19 03:16:58;;;;;;;42.42;26.17;;;10.60;99.90;;;;;;5034221;28;20203;-78
2022/10/19 03:19:24;;;;;;;41.70;25.58;;;10.70;99.90;;;;;;5034224;28;20183;-78
2022/10/19 03:21:50;;;;;;;41.92;26.63;;;10.80;99.90;;;;;;5034201;28;20186;-78
2022/10/19 03:24:16;;;;;;;45.97;27.00;;;10.90;99.90;;;;;;5033519;28;20232;-78
2022/10/19 03:26:42;;;;;;;43.25;27.63;;;10.90;99.90;;;;;;5034294;28;20294;-78
2022/10/19 03:29:07;;;;;;;46.40;27.38;;;11.00;99.90;;;;;;5034289;28;20349;-78
2022/10/19 03:31:33;;;;;;;41.90;27.40;;;11.00;99.90;;;;;;5034531;28;20228;-78
2022/10/19 03:33:58;;;;;;;48.25;28.90;;;11.00;99.90;;;;;;5035400;28;20183;-78
2022/10/19 03:36:30;;;;;;;41.28;26.13;;;11.00;99.90;;;;;;5034209;28;20195;-78
2022/10/19 03:38:58;;;;;;;39.30;26.27;;;11.10;99.90;;;;;;5034241;28;20184;-78
2022/10/19 03:41:27;;;;;;;38.80;25.92;;;11.10;99.90;;;;;;5033990;28;20179;-78
2022/10/19 03:43:52;;;;;;;44.00;27.73;;;11.10;99.90;;;;;;5034476;28;20182;-78
2022/10/19 03:46:18;;;;;;;44.50;27.70;;;11.10;99.90;;;;;;5035272;28;20199;-78
2022/10/19 03:48:44;;;;;;;44.75;27.10;;;11.20;99.90;;;;;;5034362;28;20661;-78
2022/10/19 03:51:13;;;;;;;41.90;26.90;;;11.20;99.90;;;;;;5035961;28;20167;-78
2022/10/19 03:53:39;;;;;;;37.70;25.45;;;11.30;99.90;;;;;;5034175;28;20175;-78
2022/10/19 03:56:06;;;;;;;39.58;25.58;;;11.30;99.90;;;;;;5035625;28;20217;-78
2022/10/19 03:58:33;;;;;;;41.67;25.85;;;11.40;99.90;;;;;;5034331;28;20190;-78
2022/10/19 04:00:59;;;;;;;39.85;25.05;;;11.40;99.90;;;;;;5033971;28;20179;-78
2022/10/19 04:03:25;;;;;;;40.75;25.15;;;11.40;99.90;;;;;;5033902;28;20621;-78
2022/10/19 04:05:51;;;;;;;40.08;26.02;;;11.40;99.90;;;;;;5040122;28;20201;-79
2022/10/19 04:08:17;;;;;;;44.10;27.70;;;11.40;99.90;;;;;;5044132;28;20618;-79
2022/10/19 04:10:43;;;;;;;37.47;24.20;;;11.40;99.90;;;;;;5041993;28;20207;-78
2022/10/19 04:13:10;;;;;;;30.50;22.38;;;11.50;99.90;;;;;;5042235;28;20177;-79
2022/10/19 04:15:36;;;;;;;31.77;22.08;;;11.50;99.90;;;;;;5038524;28;20187;-79
2022/10/19 04:18:02;;;;;;;32.72;20.20;;;11.50;99.90;;;;;;5037615;28;20666;-79
2022/10/19 04:20:27;;;;;;;27.98;19.20;;;11.40;99.90;;;;;;5036336;28;20269;-79
2022/10/19 04:22:54;;;;;;;34.63;19.00;;;11.40;99.90;;;;;;5037634;28;20269;-78
2022/10/19 04:25:21;;;;;;;29.95;19.40;;;11.40;99.90;;;;;;5039131;28;20179;-78
2022/10/19 04:27:46;;;;;;;25.38;18.48;;;11.40;99.90;;;;;;5039563;28;20195;-78
2022/10/19 04:30:12;;;;;;;26.35;19.20;;;11.40;99.90;;;;;;5042144;28;20217;-78
2022/10/19 04:32:38;;;;;;;24.92;18.95;;;11.40;99.90;;;;;;5036496;28;20220;-78
2022/10/19 04:35:04;;;;;;;25.95;18.10;;;11.30;99.90;;;;;;5035155;28;20170;-78
2022/10/19 04:37:30;;;;;;;26.23;18.88;;;11.40;99.90;;;;;;5032104;28;20202;-78
2022/10/19 04:39:55;;;;;;;32.08;21.65;;;11.30;99.90;;;;;;5033980;28;20179;-77
2022/10/19 04:42:21;;;;;;;30.83;21.20;;;11.30;99.90;;;;;;5033294;28;20210;-78
2022/10/19 04:44:46;;;;;;;31.15;19.92;;;11.30;99.90;;;;;;5032723;28;20225;-78
2022/10/19 04:47:12;;;;;;;26.15;19.63;;;11.20;99.90;;;;;;5033163;28;20190;-78
2022/10/19 04:49:37;;;;;;;29.30;19.52;;;11.20;99.90;;;;;;5034165;28;20207;-77
2022/10/19 04:52:03;;;;;;;23.20;17.52;;;11.20;99.90;;;;;;5033899;28;20175;-77
2022/10/19 04:54:28;;;;;;;35.28;19.17;;;11.20;99.90;;;;;;5033885;28;20308;-78
2022/10/19 04:56:54;;;;;;;30.40;19.42;;;11.10;99.90;;;;;;5032876;28;20203;-78
2022/10/19 04:59:19;;;;;;;29.83;20.25;;;11.10;99.90;;;;;;5032727;28;20202;-78
2022/10/19 05:01:45;;;;;;;28.75;19.40;;;11.10;99.90;;;;;;5032743;28;20179;-77
2022/10/19 05:04:11;;;;;;;28.05;18.23;;;11.10;99.90;;;;;;5032773;28;20183;-78
2022/10/19 05:06:36;;;;;;;25.92;18.95;;;11.10;99.90;;;;;;5033377;28;20226;-78
2022/10/19 05:09:03;;;;;;;25.67;17.35;;;11.10;99.90;;;;;;5032613;28;20206;-78
2022/10/19 05:11:28;;;;;;;23.48;18.30;;;11.20;99.90;;;;;;5033393;28;20198;-78
2022/10/19 05:13:55;;;;;;;24.90;18.02;;;11.20;99.90;;;;;;5032219;28;20666;-78
2022/10/19 05:16:22;;;;;;;24.67;17.25;;;11.20;99.90;;;;;;5033629;28;20233;-78
2022/10/19 05:18:50;;;;;;;26.23;17.17;;;11.20;99.90;;;;;;5032136;28;20186;-78
2022/10/19 05:21:16;;;;;;;24.48;17.10;;;11.20;99.90;;;;;;5032162;28;20213;-78
2022/10/19 05:23:42;;;;;;;25.35;17.77;;;11.30;99.90;;;;;;5032279;28;20186;-78
2022/10/19 05:26:16;;;;;;;29.77;18.25;;;11.30;99.90;;;;;;5032086;28;20195;-78
2022/10/19 05:28:46;;;;;;;25.70;17.77;;;11.30;99.90;;;;;;5033476;28;20183;-78
2022/10/19 05:31:14;;;;;;;27.77;16.80;;;11.20;99.90;;;;;;5032088;28;20309;-77
2022/10/19 05:33:59;;;;;;;25.20;16.73;;;11.20;99.90;;;;;;5033130;28;20175;-77
2022/10/19 05:36:33;;;;;;;23.52;16.48;;;11.30;99.90;;;;;;5032036;28;20243;-77
2022/10/19 05:39:03;;;;;;;20.33;16.50;;;11.30;99.90;;;;;;5032993;28;20162;-77
2022/10/19 05:41:28;;;;;;;24.92;17.05;;;11.20;99.90;;;;;;5031993;28;20175;-77
2022/10/19 05:43:56;;;;;;;23.63;16.35;;;11.20;99.90;;;;;;5031703;28;20186;-77
2022/10/19 05:46:44;;;;;;;25.30;16.88;;;11.20;99.90;;;;;;5032024;28;20222;-77
2022/10/19 05:49:14;;;;;;;23.73;16.35;;;11.30;99.90;;;;;;5035230;28;20685;-77
2022/10/19 05:51:39;;;;;;;24.08;16.60;;;11.40;99.90;;;;;;5035818;28;20174;-77
2022/10/19 05:54:06;;;;;;;23.65;16.30;;;11.30;99.90;;;;;;5035807;28;20719;-77
2022/10/19 05:56:32;;;;;;;24.20;16.13;;;11.40;99.90;;;;;;5035690;28;20202;-77
2022/10/19 05:59:00;;;;;;;20.77;15.98;;;11.40;99.90;;;;;;5035792;28;20198;-77
2022/10/19 06:01:27;;;;;;;25.92;16.63;;;11.40;99.90;;;;;;5036845;28;20638;-77
2022/10/19 06:03:55;;;;;;;23.73;15.63;;;11.40;99.90;;;;;;5036134;28;20214;-77
2022/10/19 06:06:22;;;;;;;21.63;15.82;;;11.30;99.90;;;;;;5036245;28;20252;-77
2022/10/19 06:08:49;;;;;;;19.98;15.20;;;11.40;99.90;;;;;;5034038;28;20638;-78
2022/10/19 06:11:36;;;;;;;24.60;15.95;;;11.40;99.90;;;;;;5035892;28;20186;-78
2022/10/19 06:14:05;;;;;;;21.08;15.10;;;11.50;99.90;;;;;;5016885;28;20255;-77
2022/10/19 06:16:31;;;;;;;21.58;15.23;;;11.50;99.90;;;;;;5015512;28;20207;-78
2022/10/19 06:18:57;;;;;;;20.33;15.43;;;11.50;99.90;;;;;;5036369;28;20233;-78
2022/10/19 06:21:26;;;;;;;19.23;14.15;;;11.50;99.90;;;;;;5035245;28;20183;-78
2022/10/19 06:23:53;;;;;;;18.90;14.45;;;11.60;99.90;;;;;;5035200;28;20275;-78
2022/10/19 06:26:19;;;;;;;20.23;13.38;;;11.60;99.90;;;;;;5035038;28;20278;-78
2022/10/19 06:28:45;;;;;;;20.30;13.88;;;11.60;99.90;;;;;;5034736;28;20179;-78
2022/10/19 06:31:12;;;;;;;20.27;13.75;;;11.70;99.90;;;;;;5036124;28;20589;-78
2022/10/19 06:33:43;;;;;;;20.20;12.90;;;11.70;99.90;;;;;;5035095;28;20185;-78
2022/10/19 06:36:13;;;;;;;22.15;13.18;;;11.70;99.90;;;;;;5034923;28;20199;-78
2022/10/19 06:38:39;;;;;;;19.27;12.50;;;11.70;99.90;;;;;;5035038;28;20182;-78
2022/10/19 06:41:05;;;;;;;17.50;12.55;;;11.60;99.90;;;;;;5035108;28;20179;-78
2022/10/19 06:43:31;;;;;;;16.33;11.88;;;11.60;99.90;;;;;;5034315;28;20179;-78
2022/10/19 06:45:57;;;;;;;18.17;12.68;;;11.60;99.90;;;;;;5035031;28;20203;-78
2022/10/19 06:48:23;;;;;;;20.58;12.35;;;11.70;99.90;;;;;;5034379;28;20187;-78
2022/10/19 06:50:56;;;;;;;18.08;12.32;;;11.80;99.90;;;;;;5034585;28;20203;-78
2022/10/19 06:53:22;;;;;;;19.10;12.07;;;11.90;99.90;;;;;;5034240;28;20214;-78
2022/10/19 06:55:48;;;;;;;18.70;11.32;;;12.00;99.90;;;;;;5034508;28;20253;-78
2022/10/19 06:58:13;;;;;;;17.33;10.63;;;12.00;99.90;;;;;;5035382;28;20205;-78
2022/10/19 07:00:40;;;;;;;16.08;11.00;;;12.00;99.90;;;;;;5033097;28;20183;-78
2022/10/19 07:03:05;;;;;;;18.58;12.60;;;12.10;99.90;;;;;;5035398;28;20171;-78
2022/10/19 07:05:31;;;;;;;17.30;11.80;;;12.10;99.90;;;;;;5033948;28;20194;-78
2022/10/19 07:07:57;;;;;;;16.70;10.65;;;12.00;99.90;;;;;;5034317;28;20203;-78
2022/10/19 07:10:22;;;;;;;16.23;11.43;;;11.90;99.90;;;;;;5034252;28;20237;-78
2022/10/19 07:12:48;;;;;;;18.83;10.75;;;11.80;99.90;;;;;;5034370;28;20189;-78
2022/10/19 07:15:14;;;;;;;14.75;10.95;;;11.70;99.90;;;;;;5034142;28;20183;-78
2022/10/19 07:17:39;;;;;;;16.98;10.85;;;11.60;99.90;;;;;;5034011;28;20214;-78
2022/10/19 07:20:05;;;;;;;17.13;11.27;;;11.40;99.90;;;;;;5034436;28;20179;-78
2022/10/19 07:22:31;;;;;;;16.80;11.45;;;11.30;99.90;;;;;;5033443;28;20265;-77
2022/10/19 07:24:57;;;;;;;19.20;11.43;;;11.30;99.90;;;;;;5033682;28;20183;-77
2022/10/19 07:27:23;;;;;;;17.30;11.45;;;11.30;99.90;;;;;;5033444;28;20198;-77
2022/10/19 07:29:48;;;;;;;15.23;10.75;;;11.30;99.90;;;;;;5033908;28;20669;-77
2022/10/19 07:32:14;;;;;;;16.30;10.52;;;11.40;99.90;;;;;;5033764;28;20179;-77
2022/10/19 07:34:39;;;;;;;12.70;10.43;;;11.50;99.90;;;;;;5033829;28;20277;-77
2022/10/19 07:37:05;;;;;;;14.18;10.32;;;11.60;99.90;;;;;;5034817;28;20199;-77
2022/10/19 07:39:31;;;;;;;15.65;11.07;;;11.60;99.90;;;;;;5033580;28;20189;-77
2022/10/19 07:41:56;;;;;;;13.70;10.88;;;11.70;99.90;;;;;;5033564;28;20179;-77
2022/10/19 07:44:22;;;;;;;13.05;10.38;;;11.70;99.90;;;;;;5033562;28;20278;-77
2022/10/19 07:46:48;;;;;;;15.68;9.98;;;11.90;99.90;;;;;;5033551;28;20198;-77
2022/10/19 07:49:18;;;;;;;14.23;9.82;;;11.90;99.90;;;;;;5033585;28;20213;-77
2022/10/19 07:51:45;;;;;;;15.75;10.48;;;12.00;99.90;;;;;;5033565;28;20163;-77
2022/10/19 07:54:11;;;;;;;14.60;9.55;;;11.90;99.90;;;;;;5034713;28;20217;-77
2022/10/19 07:56:36;;;;;;;15.13;10.25;;;11.90;99.90;;;;;;5033698;28;20195;-77
2022/10/19 07:59:03;;;;;;;12.52;10.10;;;12.00;99.90;;;;;;5033119;28;20229;-77
2022/10/19 08:01:32;;;;;;;16.50;10.55;;;12.10;99.90;;;;;;5034739;28;20167;-77
2022/10/19 08:03:59;;;;;;;15.50;9.90;;;12.20;99.90;;;;;;5033097;28;20186;-78
2022/10/19 08:06:25;;;;;;;15.45;10.25;;;12.20;99.90;;;;;;5033566;28;20677;-78
2022/10/19 08:08:51;;;;;;;16.00;10.07;;;12.10;99.90;;;;;;5034468;28;20190;-78
2022/10/19 08:11:19;;;;;;;13.77;10.05;;;12.10;99.90;;;;;;5033114;28;20178;-78
2022/10/19 08:13:45;;;;;;;13.43;10.70;;;12.20;99.90;;;;;;5032481;28;20175;-78
2022/10/19 08:16:40;;;;;;;11.80;9.10;;;12.10;99.90;;;;;;5032960;28;20202;-78
2022/10/19 08:19:14;;;;;;;10.23;8.70;;;12.20;99.90;;;;;;5032214;28;20206;-78
2022/10/19 08:21:41;;;;;;;18.20;9.43;;;12.30;99.90;;;;;;5032458;28;20178;-78
2022/10/19 08:24:07;;;;;;;10.70;8.68;;;12.40;99.90;;;;;;5032632;28;20646;-78
2022/10/19 08:26:36;;;;;;;14.30;8.05;;;12.50;99.90;;;;;;5032957;28;20202;-78
2022/10/19 08:29:04;;;;;;;10.90;8.70;;;12.30;99.90;;;;;;5032394;28;20240;-78
2022/10/19 08:31:30;;;;;;;15.23;7.90;;;11.90;99.90;;;;;;5032689;28;20270;-78
2022/10/19 08:33:56;;;;;;;12.18;8.02;;;12.10;99.90;;;;;;5032702;28;20662;-78
2022/10/19 08:36:22;;;;;;;11.20;7.38;;;12.10;99.90;;;;;;5032789;28;20202;-78
2022/10/19 08:38:49;;;;;;;13.50;8.10;;;12.10;99.90;;;;;;5032702;28;20193;-78
2022/10/19 08:41:17;;;;;;;14.15;7.80;;;12.20;99.90;;;;;;5032636;28;20178;-77
2022/10/19 08:43:52;;;;;;;12.18;7.38;;;12.20;99.90;;;;;;5032446;28;20600;-77
2022/10/19 08:46:48;;;;;;;15.23;8.00;;;12.20;99.90;;;;;;5012860;28;20199;-77
2022/10/19 08:49:21;;;;;;;13.82;7.78;;;12.10;99.90;;;;;;5027905;28;20238;-77
2022/10/19 08:52:25;;;;;;;10.02;8.10;;;12.30;99.90;;;;;;5031732;28;20179;-77
2022/10/19 08:54:55;;;;;;;16.30;7.85;;;12.40;99.90;;;;;;5031040;28;20673;-77
2022/10/19 08:57:49;;;;;;;7.78;6.50;;;12.50;99.90;;;;;;5032255;28;20199;-77
2022/10/19 09:00:24;;;;;;;10.07;6.88;;;12.50;99.90;;;;;;5033562;28;20174;-77
2022/10/19 09:03:18;;;;;;;8.77;7.07;;;12.70;99.90;;;;;;5031623;28;20173;-77
2022/10/19 09:06:18;;;;;;;7.55;6.60;;;12.80;99.90;;;;;;5031798;28;20171;-77
2022/10/19 09:08:45;;;;;;;12.65;7.40;;;12.90;99.90;;;;;;5031939;28;20261;-77
2022/10/19 09:11:11;;;;;;;6.95;6.25;;;13.00;99.90;;;;;;5032535;28;20246;-77
2022/10/19 09:13:45;;;;;;;9.30;6.78;;;13.00;99.90;;;;;;5032914;28;20592;-77
2022/10/19 09:16:13;;;;;;;11.85;7.35;;;13.10;99.90;;;;;;5032247;28;20344;-77
2022/10/19 09:18:41;;;;;;;7.15;6.28;;;13.20;99.90;;;;;;5031659;28;20187;-77
2022/10/19 09:21:14;;;;;;;11.88;6.53;;;13.20;99.90;;;;;;5033574;28;20558;-78
2022/10/19 09:23:49;;;;;;;9.23;6.50;;;13.20;99.90;;;;;;5031219;28;20185;-78
2022/10/19 09:26:17;;;;;;;13.20;6.97;;;13.30;99.90;;;;;;5031962;28;20256;-78
2022/10/19 09:28:54;;;;;;;12.20;6.07;;;13.30;99.90;;;;;;5032972;28;20179;-78
2022/10/19 09:31:42;;;;;;;6.75;5.95;;;13.40;99.90;;;;;;5032338;28;20592;-78
2022/10/19 09:34:14;;;;;;;8.23;5.30;;;13.30;99.90;;;;;;5032010;28;20268;-77
2022/10/19 09:36:41;;;;;;;8.10;5.60;;;13.40;99.90;;;;;;5032160;28;20206;-77
2022/10/19 09:39:12;;;;;;;6.68;4.68;;;13.50;99.90;;;;;;5031255;28;20186;-77
2022/10/19 09:41:45;;;;;;;8.88;5.20;;;13.60;99.90;;;;;;5031981;28;20167;-77
2022/10/19 09:44:12;;;;;;;6.47;4.65;;;13.60;99.90;;;;;;5031935;28;20178;-78
2022/10/19 09:47:09;;;;;;;9.30;5.60;;;13.60;99.90;;;;;;5032149;28;20203;-78
2022/10/19 09:49:46;;;;;;;6.97;4.93;;;13.60;99.90;;;;;;5031002;28;20265;-78
2022/10/19 09:52:30;;;;;;;7.85;5.80;;;13.70;99.90;;;;;;5032062;28;20265;-78
2022/10/19 09:55:03;;;;;;;8.85;5.15;;;13.60;99.90;;;;;;5032073;28;20274;-78
2022/10/19 09:57:29;;;;;;;9.25;4.75;;;13.70;99.90;;;;;;5031859;28;20199;-78
2022/10/19 09:59:55;;;;;;;13.43;4.80;;;13.60;99.90;;;;;;5031749;28;20186;-78
2022/10/19 10:02:29;;;;;;;7.32;4.32;;;13.70;99.90;;;;;;5032747;28;20187;-78
2022/10/19 10:05:12;;;;;;;7.70;4.50;;;13.80;99.90;;;;;;5031627;28;20170;-78
2022/10/19 10:07:38;;;;;;;5.10;4.22;;;13.80;99.90;;;;;;5031711;28;20199;-78
2022/10/19 10:10:17;;;;;;;6.32;4.07;;;13.80;99.90;;;;;;5032900;28;20234;-78
2022/10/19 10:12:42;;;;;;;8.07;4.35;;;13.90;99.90;;;;;;5031585;28;20205;-78
2022/10/19 10:15:17;;;;;;;5.88;3.90;;;13.90;99.90;;;;;;5031964;28;20210;-78
2022/10/19 10:17:46;;;;;;;8.75;3.97;;;14.00;99.90;;;;;;5031817;28;20198;-78
2022/10/19 10:20:23;;;;;;;6.50;4.38;;;14.00;99.90;;;;;;5031596;28;20179;-78
2022/10/19 10:23:19;;;;;;;6.43;4.38;;;14.10;99.90;;;;;;5031932;28;20257;-78
2022/10/19 10:25:47;;;;;;;4.18;3.72;;;14.20;99.90;;;;;;5030951;28;20203;-78
2022/10/19 10:28:24;;;;;;;7.75;3.95;;;14.30;99.90;;;;;;5031905;28;20529;-78
2022/10/19 10:30:58;;;;;;;8.52;3.85;;;14.30;99.90;;;;;;5033235;28;20198;-78
2022/10/19 10:33:27;;;;;;;6.55;3.80;;;14.40;99.90;;;;;;5031711;28;20159;-78
2022/10/19 10:35:56;;;;;;;6.38;4.10;;;14.50;99.90;;;;;;5034250;28;20207;-78
2022/10/19 10:38:29;;;;;;;16.63;4.00;;;14.50;99.90;;;;;;5036464;28;20170;-80
2022/10/19 10:41:02;;;;;;;5.93;3.38;;;14.40;99.90;;;;;;5035171;28;20680;-79
2022/10/19 10:43:33;;;;;;;7.78;3.70;;;14.30;99.90;;;;;;5035381;28;20189;-78
2022/10/19 10:46:04;;;;;;;9.07;3.67;;;14.30;99.90;;;;;;5034856;28;20198;-79
2022/10/19 10:48:52;;;;;;;7.07;3.58;;;14.40;99.90;;;;;;5035163;28;20163;-78
2022/10/19 10:51:36;;;;;;;11.27;4.03;;;14.30;99.90;;;;;;5035012;28;20182;-78
2022/10/19 10:54:16;;;;;;;7.63;3.90;;;14.30;99.90;;;;;;5034642;28;20206;-78
2022/10/19 10:56:44;;;;;;;6.50;3.80;;;14.30;99.90;;;;;;5034710;28;20233;-78
2022/10/19 10:59:14;;;;;;;7.53;3.80;;;14.30;99.90;;;;;;5034645;28;20233;-78
2022/10/19 11:01:47;;;;;;;7.63;4.22;;;14.30;99.90;;;;;;5034537;28;20194;-79
2022/10/19 11:04:20;;;;;;;7.18;4.13;;;14.40;99.90;;;;;;5035634;28;20171;-79
2022/10/19 11:06:53;;;;;;;8.45;4.55;;;14.50;99.90;;;;;;5034544;28;20199;-78
2022/10/19 11:09:29;;;;;;;9.20;4.18;;;14.60;99.90;;;;;;5035702;28;20194;-78
2022/10/19 11:12:00;;;;;;;8.48;4.63;;;14.70;99.90;;;;;;5035862;28;20501;-78
2022/10/19 11:14:47;;;;;;;7.15;4.50;;;14.70;99.90;;;;;;5036435;28;20202;-79
2022/10/19 11:17:24;;;;;;;6.53;4.55;;;14.70;99.90;;;;;;5036340;28;20209;-79
2022/10/19 11:19:50;;;;;;;11.48;4.28;;;14.60;99.90;;;;;;5035751;28;20217;-79
2022/10/19 11:22:19;;;;;;;9.68;4.57;;;14.60;99.90;;;;;;5034776;28;20241;-79
2022/10/19 11:25:12;;;;;;;9.65;4.72;;;14.70;99.90;;;;;;5036774;28;20289;-79
2022/10/19 11:27:51;;;;;;;10.07;5.07;;;14.80;99.90;;;;;;5036867;28;20202;-79
2022/10/19 11:30:24;;;;;;;10.60;5.25;;;14.90;99.90;;;;;;5034678;28;20209;-79
2022/10/19 11:33:19;;;;;;;8.30;5.32;;;15.10;99.90;;;;;;5034382;28;20171;-79
2022/10/19 11:35:53;;;;;;;10.05;4.93;;;15.20;99.90;;;;;;5035174;28;20163;-79
2022/10/19 11:38:39;;;;;;;8.93;4.85;;;15.20;99.90;;;;;;5035112;28;20174;-79
2022/10/19 11:41:42;;;;;;;8.32;5.18;;;15.10;99.90;;;;;;5034617;28;20182;-79
2022/10/19 11:44:52;;;;;;;10.32;4.53;;;15.00;99.90;;;;;;5025126;28;20174;-78
2022/10/19 11:47:30;;;;;;;9.85;5.18;;;15.10;99.90;;;;;;5022234;28;20249;-79
2022/10/19 11:50:19;;;;;;;11.60;5.13;;;15.10;99.90;;;;;;5035268;28;20265;-79
2022/10/19 11:53:40;;;;;;;11.60;6.72;;;15.30;99.90;;;;;;5033802;28;20167;-79
2022/10/19 11:56:31;;;;;;;13.27;8.57;;;15.30;99.90;;;;;;5033635;28;20286;-78
2022/10/19 11:59:34;;;;;;;7.65;5.55;;;15.50;99.90;;;;;;5034548;28;20230;-78
2022/10/19 12:02:32;;;;;;;9.40;6.30;;;15.40;99.90;;;;;;5030628;28;20182;-78
2022/10/19 12:05:16;;;;;;;8.27;5.70;;;15.30;99.90;;;;;;5033453;28;20519;-78
2022/10/19 12:07:54;;;;;;;9.75;5.75;;;15.40;99.90;;;;;;5033484;28;20199;-78
2022/10/19 12:10:41;;;;;;;9.90;5.22;;;15.50;99.90;;;;;;5033561;28;20210;-78
2022/10/19 12:13:12;;;;;;;14.93;7.70;;;15.60;99.90;;;;;;5034270;28;20228;-78
2022/10/19 12:15:46;;;;;;;13.27;7.43;;;15.70;99.90;;;;;;5034371;28;20163;-78
2022/10/19 12:18:48;;;;;;;15.80;7.22;;;15.80;99.90;;;;;;5033547;28;20182;-78
2022/10/19 12:21:28;;;;;;;10.20;7.22;;;15.80;99.90;;;;;;5033338;28;20181;-78
2022/10/19 12:23:57;;;;;;;10.63;7.18;;;15.90;99.90;;;;;;5033038;28;20301;-78
2022/10/19 12:26:26;;;;;;;9.45;6.82;;;15.90;99.90;;;;;;5033205;28;20305;-79
2022/10/19 12:28:59;;;;;;;10.00;7.03;;;15.90;99.90;;;;;;5034513;28;20181;-79
2022/10/19 12:31:27;;;;;;;10.43;6.55;;;15.90;99.90;;;;;;5034109;28;20187;-78
2022/10/19 12:34:05;;;;;;;11.25;6.40;;;15.90;99.90;;;;;;5032808;28;20179;-78
2022/10/19 12:36:53;;;;;;;13.98;7.03;;;15.80;99.90;;;;;;5032913;28;20241;-78
2022/10/19 12:39:38;;;;;;;12.45;7.55;;;15.70;99.90;;;;;;5032960;28;20170;-78
2022/10/19 12:42:17;;;;;;;22.65;7.93;;;15.60;99.90;;;;;;5033363;28;20174;-79
2022/10/19 12:45:13;;;;;;;15.38;7.90;;;15.60;99.90;;;;;;5033114;28;20281;-79
2022/10/19 12:47:39;;;;;;;9.35;7.57;;;15.50;99.90;;;;;;5034213;28;20199;-78
2022/10/19 12:50:05;;;;;;;10.85;8.10;;;15.60;99.90;;;;;;5032498;28;20237;-78
2022/10/19 12:52:55;;;;;;;8.88;7.63;;;15.60;99.90;;;;;;5034235;28;20179;-78
2022/10/19 12:55:20;;;;;;;12.10;8.50;;;15.60;99.90;;;;;;5033661;28;20233;-78